createdAt,value
2019-05-13T00:01:35.989Z,-1.20
2019-05-13T00:04:06.131Z,-1.20
2019-05-13T00:06:50.258Z,-1.20
2019-05-13T00:09:08.597Z,-1.30
2019-05-13T00:11:38.839Z,-1.30
2019-05-13T00:14:08.846Z,-1.40
2019-05-13T00:16:38.678Z,-1.40
2019-05-13T00:19:09.186Z,-1.40
2019-05-13T00:21:39.167Z,-1.40
2019-05-13T00:24:09.353Z,-1.50
2019-05-13T00:26:39.546Z,-1.50
2019-05-13T00:29:09.492Z,-1.50
2019-05-13T00:31:39.348Z,-1.50
2019-05-13T00:34:09.521Z,-1.50
2019-05-13T00:36:39.469Z,-1.60
2019-05-13T00:39:09.710Z,-1.60
2019-05-13T00:41:39.963Z,-1.60
2019-05-13T00:44:09.851Z,-1.60
2019-05-13T00:46:39.766Z,-1.70
2019-05-13T00:49:10.038Z,-1.70
2019-05-13T00:51:39.889Z,-1.70
2019-05-13T00:54:10.058Z,-1.70
2019-05-13T00:56:40.299Z,-1.70
2019-05-13T00:59:10.248Z,-1.70
2019-05-13T01:01:40.079Z,-1.80
2019-05-13T01:04:10.222Z,-1.80
2019-05-13T01:06:40.146Z,-1.80
2019-05-13T01:09:10.817Z,-1.70
2019-05-13T01:11:43.615Z,-1.80
2019-05-13T01:14:14.379Z,-1.80
2019-05-13T01:16:44.566Z,-1.80
2019-05-13T01:19:14.558Z,-1.80
2019-05-13T01:21:44.574Z,-1.90
2019-05-13T01:24:15.107Z,-1.90
2019-05-13T01:26:44.938Z,-2.00
2019-05-13T01:29:14.892Z,-2.00
2019-05-13T01:31:45.129Z,-2.00
2019-05-13T01:34:14.997Z,-1.90
2019-05-13T01:36:46.524Z,-1.90
2019-05-13T01:39:16.518Z,-1.90
2019-05-13T01:41:46.385Z,-2.00
2019-05-13T01:44:16.650Z,-1.90
2019-05-13T01:46:46.563Z,-1.90
2019-05-13T01:49:18.591Z,-2.00
2019-05-13T01:51:48.366Z,-2.10
2019-05-13T01:54:18.860Z,-2.10
2019-05-13T01:56:48.682Z,-2.10
2019-05-13T01:59:18.911Z,-2.10
2019-05-13T02:01:48.811Z,-2.20
2019-05-13T02:04:18.681Z,-2.20
2019-05-13T02:06:48.963Z,-2.20
2019-05-13T02:09:19.175Z,-2.10
2019-05-13T02:11:49.541Z,-2.10
2019-05-13T02:14:19.848Z,-2.10
2019-05-13T02:16:49.687Z,-2.10
2019-05-13T02:19:19.619Z,-2.10
2019-05-13T02:21:49.900Z,-2.20
2019-05-13T02:24:20.039Z,-2.20
2019-05-13T02:26:50.248Z,-2.30
2019-05-13T02:29:20.156Z,-2.30
2019-05-13T02:31:55.206Z,-2.30
2019-05-13T02:34:23.238Z,-2.40
2019-05-13T02:36:53.388Z,-2.30
2019-05-13T02:39:24.360Z,-2.30
2019-05-13T02:41:54.187Z,-2.30
2019-05-13T02:44:24.166Z,-2.30
2019-05-13T02:46:54.297Z,-2.30
2019-05-13T02:49:24.178Z,-2.10
2019-05-13T02:51:54.921Z,-2.10
2019-05-13T02:54:25.552Z,-2.10
2019-05-13T02:56:55.462Z,-2.20
2019-05-13T02:59:25.364Z,-2.20
2019-05-13T03:01:55.276Z,-2.10
2019-05-13T03:04:25.142Z,-2.10
2019-05-13T03:06:55.107Z,-2.00
2019-05-13T03:09:25.567Z,-1.90
2019-05-13T03:11:55.461Z,-1.80
2019-05-13T03:14:25.386Z,-1.70
2019-05-13T03:17:03.143Z,-1.50
2019-05-13T03:19:33.321Z,-1.60
2019-05-13T03:22:04.182Z,-1.70
2019-05-13T03:24:34.026Z,-1.60
2019-05-13T03:27:03.981Z,-1.50
2019-05-13T03:29:34.231Z,-1.60
2019-05-13T03:32:06.909Z,-1.50
2019-05-13T03:34:36.830Z,-1.40
2019-05-13T03:37:08.215Z,-1.40
2019-05-13T03:39:43.454Z,-1.30
2019-05-13T03:42:13.943Z,-1.20
2019-05-13T03:44:45.888Z,-1.10
2019-05-13T03:47:15.886Z,-1.00
2019-05-13T03:49:47.353Z,-0.90
2019-05-13T03:52:17.287Z,-0.80
2019-05-13T03:54:51.892Z,-0.70
2019-05-13T03:57:23.217Z,-0.70
2019-05-13T03:59:53.055Z,-0.60
2019-05-13T04:02:23.053Z,-0.50
2019-05-13T04:04:53.374Z,-0.40
2019-05-13T04:07:23.925Z,-0.30
2019-05-13T04:09:54.090Z,-0.30
2019-05-13T04:12:28.140Z,-0.10
2019-05-13T04:14:56.024Z,-0.10
2019-05-13T04:17:26.157Z,-0.10
2019-05-13T04:19:56.136Z,0.00
2019-05-13T04:22:26.207Z,0.00
2019-05-13T04:24:56.816Z,0.10
2019-05-13T04:27:27.017Z,0.10
2019-05-13T04:29:57.577Z,0.20
2019-05-13T04:32:29.008Z,0.30
2019-05-13T04:34:59.465Z,0.20
2019-05-13T04:37:32.609Z,0.30
2019-05-13T04:40:03.767Z,0.40
2019-05-13T04:42:33.508Z,0.40
2019-05-13T04:45:04.331Z,0.50
2019-05-13T04:47:34.300Z,0.50
2019-05-13T04:50:04.655Z,0.60
2019-05-13T04:52:34.895Z,0.70
2019-05-13T04:55:05.743Z,0.70
2019-05-13T04:57:36.606Z,0.70
2019-05-13T05:00:08.075Z,0.60
2019-05-13T05:02:56.065Z,0.50
2019-05-13T05:06:08.491Z,0.50
2019-05-13T05:09:08.230Z,0.50
2019-05-13T05:12:33.978Z,0.50
2019-05-13T05:15:52.244Z,0.70
2019-05-13T05:19:15.168Z,1.00
2019-05-13T05:22:03.282Z,1.00
2019-05-13T05:25:11.787Z,1.20
2019-05-13T05:28:11.252Z,1.30
2019-05-13T05:31:11.995Z,1.50
2019-05-13T05:34:35.098Z,1.70
2019-05-13T05:37:31.232Z,1.80
2019-05-13T05:40:04.002Z,1.90
2019-05-13T05:42:36.019Z,2.20
2019-05-13T05:45:07.298Z,2.40
2019-05-13T05:47:41.904Z,2.60
2019-05-13T05:50:12.584Z,2.70
2019-05-13T05:52:43.917Z,2.80
2019-05-13T05:55:14.375Z,3.10
2019-05-13T05:57:46.356Z,3.30
2019-05-13T06:00:16.563Z,3.50
2019-05-13T06:02:52.981Z,3.80
2019-05-13T06:05:22.109Z,4.10
2019-05-13T06:07:52.149Z,4.40
2019-05-13T06:10:22.546Z,4.70
2019-05-13T06:12:53.823Z,5.00
2019-05-13T06:15:24.150Z,5.30
2019-05-13T06:17:54.449Z,5.40
2019-05-13T06:20:24.336Z,5.40
2019-05-13T06:22:54.443Z,5.60
2019-05-13T06:25:24.821Z,5.60
2019-05-13T06:27:54.742Z,5.80
2019-05-13T06:30:24.638Z,5.80
2019-05-13T06:32:54.896Z,5.80
2019-05-13T06:35:24.813Z,6.00
2019-05-13T06:37:54.751Z,6.10
2019-05-13T06:40:25.434Z,6.20
2019-05-13T06:42:55.246Z,6.20
2019-05-13T06:45:25.138Z,6.40
2019-05-13T06:47:55.407Z,6.40
2019-05-13T06:50:25.246Z,6.40
2019-05-13T06:52:55.127Z,6.40
2019-05-13T06:55:25.454Z,6.60
2019-05-13T06:57:55.299Z,6.70
2019-05-13T07:00:25.190Z,6.80
2019-05-13T07:02:55.406Z,7.00
2019-05-13T07:05:25.232Z,7.10
2019-05-13T07:07:55.111Z,6.90
2019-05-13T07:10:25.362Z,6.80
2019-05-13T07:12:55.230Z,6.80
2019-05-13T07:15:25.066Z,6.80
2019-05-13T07:17:55.324Z,6.90
2019-05-13T07:20:25.150Z,7.00
2019-05-13T07:22:55.006Z,7.10
2019-05-13T07:25:25.265Z,7.50
2019-05-13T07:27:55.126Z,7.60
2019-05-13T07:30:42.398Z,7.70
2019-05-13T07:33:12.914Z,7.50
2019-05-13T07:35:45.857Z,7.60
2019-05-13T07:38:16.167Z,7.80
2019-05-13T07:40:46.446Z,8.00
2019-05-13T07:43:16.322Z,7.70
2019-05-13T07:45:46.321Z,7.80
2019-05-13T07:48:20.991Z,8.10
2019-05-13T07:50:59.060Z,8.30
2019-05-13T07:53:22.019Z,8.20
2019-05-13T07:55:52.508Z,8.30
2019-05-13T07:58:23.144Z,8.40
2019-05-13T08:00:53.409Z,8.50
2019-05-13T08:03:23.331Z,8.50
2019-05-13T08:05:53.395Z,8.60
2019-05-13T08:08:23.265Z,8.50
2019-05-13T08:10:53.190Z,8.40
2019-05-13T08:13:23.964Z,8.80
2019-05-13T08:15:54.664Z,8.90
2019-05-13T08:18:25.318Z,8.80
2019-05-13T08:20:55.211Z,8.60
2019-05-13T08:23:25.113Z,8.60
2019-05-13T08:25:55.377Z,8.80
2019-05-13T08:28:25.567Z,8.80
2019-05-13T08:30:55.448Z,8.70
2019-05-13T08:33:25.752Z,8.70
2019-05-13T08:35:58.697Z,8.90
2019-05-13T08:38:27.576Z,9.10
2019-05-13T08:40:57.434Z,9.20
2019-05-13T08:43:27.633Z,9.30
2019-05-13T08:45:57.903Z,9.40
2019-05-13T08:48:27.894Z,9.50
2019-05-13T08:50:57.721Z,9.50
2019-05-13T08:53:27.926Z,9.20
2019-05-13T08:55:57.857Z,9.70
2019-05-13T08:58:28.038Z,9.30
2019-05-13T09:01:02.013Z,9.40
2019-05-13T09:03:32.511Z,9.60
2019-05-13T09:06:03.529Z,10.00
2019-05-13T09:08:33.539Z,9.70
2019-05-13T09:11:03.461Z,9.50
2019-05-13T09:13:34.008Z,9.80
2019-05-13T09:16:04.106Z,10.10
2019-05-13T09:18:33.952Z,10.20
2019-05-13T09:21:04.193Z,10.60
2019-05-13T09:23:34.190Z,10.80
2019-05-13T09:26:04.059Z,10.30
2019-05-13T09:28:34.525Z,10.10
2019-05-13T09:31:04.415Z,9.80
2019-05-13T09:33:34.353Z,9.20
2019-05-13T09:36:04.474Z,9.20
2019-05-13T09:38:34.325Z,9.20
2019-05-13T09:41:04.190Z,9.60
2019-05-13T09:43:34.632Z,9.90
2019-05-13T09:46:04.523Z,9.40
2019-05-13T09:48:34.427Z,9.10
2019-05-13T09:51:04.586Z,9.40
2019-05-13T09:53:34.438Z,9.80
2019-05-13T09:56:04.396Z,10.50
2019-05-13T09:58:34.717Z,10.70
2019-05-13T10:01:04.618Z,11.00
2019-05-13T10:03:52.017Z,11.20
2019-05-13T10:06:06.434Z,11.70
2019-05-13T10:08:36.326Z,11.10
2019-05-13T10:11:06.258Z,10.90
2019-05-13T10:13:36.914Z,10.70
2019-05-13T10:16:06.835Z,10.20
2019-05-13T10:18:36.734Z,10.30
2019-05-13T10:21:07.267Z,10.60
2019-05-13T10:23:37.291Z,10.40
2019-05-13T10:26:13.611Z,9.90
2019-05-13T10:28:42.701Z,9.90
2019-05-13T10:31:13.187Z,9.90
2019-05-13T10:33:43.189Z,10.70
2019-05-13T10:36:13.136Z,11.30
2019-05-13T10:38:43.433Z,12.00
2019-05-13T10:41:13.375Z,12.00
2019-05-13T10:43:44.426Z,12.10
2019-05-13T10:46:15.047Z,12.30
2019-05-13T10:48:45.092Z,11.70
2019-05-13T10:51:15.180Z,11.40
2019-05-13T10:53:45.491Z,11.20
2019-05-13T10:56:15.347Z,11.00
2019-05-13T10:58:46.256Z,10.70
2019-05-13T11:01:16.113Z,10.70
2019-05-13T11:03:46.082Z,11.20
2019-05-13T11:06:16.412Z,11.80
2019-05-13T11:08:46.319Z,11.60
2019-05-13T11:11:16.185Z,12.10
2019-05-13T11:13:54.390Z,11.80
2019-05-13T11:16:18.393Z,11.70
2019-05-13T11:18:48.435Z,12.10
2019-05-13T11:21:18.419Z,12.60
2019-05-13T11:23:48.361Z,12.50
2019-05-13T11:26:18.577Z,12.90
2019-05-13T11:28:48.890Z,13.30
2019-05-13T11:31:18.820Z,13.20
2019-05-13T11:33:51.739Z,13.50
2019-05-13T11:36:23.426Z,12.70
2019-05-13T11:38:53.252Z,12.80
2019-05-13T11:41:23.441Z,13.30
2019-05-13T11:44:12.190Z,12.60
2019-05-13T11:46:25.673Z,12.60
2019-05-13T11:48:55.823Z,12.30
2019-05-13T11:51:25.763Z,12.20
2019-05-13T11:53:55.742Z,11.40
2019-05-13T11:56:26.191Z,11.70
2019-05-13T11:58:56.308Z,12.20
2019-05-13T12:01:26.531Z,12.90
2019-05-13T12:03:56.750Z,13.20
2019-05-13T12:06:26.689Z,12.10
2019-05-13T12:08:56.684Z,12.00
2019-05-13T12:11:27.050Z,12.50
2019-05-13T12:13:57.359Z,13.00
2019-05-13T12:16:27.464Z,12.90
2019-05-13T12:18:57.678Z,12.60
2019-05-13T12:21:27.628Z,12.30
2019-05-13T12:23:58.240Z,12.50
2019-05-13T12:26:28.174Z,12.80
2019-05-13T12:28:58.423Z,12.50
2019-05-13T12:31:28.601Z,14.30
2019-05-13T12:33:58.517Z,14.20
2019-05-13T12:36:28.430Z,14.30
2019-05-13T12:38:58.855Z,13.90
2019-05-13T12:41:32.738Z,13.20
2019-05-13T12:44:01.781Z,13.20
2019-05-13T12:46:32.146Z,12.90
2019-05-13T12:49:03.885Z,12.30
2019-05-13T12:51:34.047Z,11.80
2019-05-13T12:54:04.488Z,11.40
2019-05-13T12:56:34.422Z,11.50
2019-05-13T12:59:04.850Z,11.90
2019-05-13T13:01:35.205Z,14.00
2019-05-13T13:04:05.106Z,15.70
2019-05-13T13:06:40.655Z,16.00
2019-05-13T13:09:08.075Z,16.00
2019-05-13T13:11:38.018Z,13.40
2019-05-13T13:14:11.323Z,13.00
2019-05-13T13:16:42.364Z,12.50
2019-05-13T13:19:14.622Z,12.70
2019-05-13T13:21:43.691Z,13.70
2019-05-13T13:24:13.710Z,14.20
2019-05-13T13:26:43.700Z,13.50
2019-05-13T13:29:14.480Z,12.70
2019-05-13T13:31:44.394Z,12.40
2019-05-13T13:34:18.562Z,13.40
2019-05-13T13:36:46.704Z,13.00
2019-05-13T13:39:16.870Z,13.30
2019-05-13T13:41:46.832Z,12.10
2019-05-13T13:44:18.278Z,11.80
2019-05-13T13:46:53.594Z,12.00
2019-05-13T13:49:23.076Z,12.00
2019-05-13T13:51:51.600Z,12.00
2019-05-13T13:54:22.527Z,12.20
2019-05-13T13:56:56.065Z,12.30
2019-05-13T13:59:25.184Z,12.80
2019-05-13T14:01:55.491Z,13.40
2019-05-13T14:04:25.652Z,13.90
2019-05-13T14:09:27.412Z,13.40
2019-05-13T14:11:57.480Z,13.30
2019-05-13T14:14:27.780Z,13.70
2019-05-13T14:16:57.826Z,13.50
2019-05-13T14:19:27.946Z,13.30
2019-05-13T14:21:57.902Z,12.90
2019-05-13T14:24:27.883Z,12.60
2019-05-13T14:26:58.190Z,12.80
2019-05-13T14:29:38.533Z,12.90
2019-05-13T14:32:01.340Z,13.00
2019-05-13T14:34:31.955Z,13.10
2019-05-13T14:37:02.464Z,14.70
2019-05-13T14:39:35.842Z,14.60
2019-05-13T14:42:04.095Z,14.60
2019-05-13T14:44:34.054Z,16.50
2019-05-13T14:47:04.071Z,18.40
2019-05-13T14:49:34.126Z,18.80
2019-05-13T14:52:04.225Z,18.10
2019-05-13T14:54:34.145Z,17.40
2019-05-13T14:57:04.448Z,15.50
2019-05-13T14:59:34.596Z,15.10
2019-05-13T15:02:04.705Z,13.60
2019-05-13T15:04:34.822Z,12.80
2019-05-13T15:07:04.815Z,12.50
2019-05-13T15:09:35.041Z,12.10
2019-05-13T15:12:05.578Z,12.60
2019-05-13T15:14:35.880Z,14.00
2019-05-13T15:17:31.544Z,14.20
2019-05-13T15:19:37.782Z,14.30
2019-05-13T15:22:08.087Z,15.60
2019-05-13T15:24:38.245Z,18.00
2019-05-13T15:27:08.149Z,18.60
2019-05-13T15:29:38.222Z,20.50
2019-05-13T15:32:08.597Z,18.60
2019-05-13T15:34:38.531Z,19.20
2019-05-13T15:37:08.491Z,21.00
2019-05-13T15:39:38.661Z,22.40
2019-05-13T15:42:08.566Z,22.80
2019-05-13T15:44:38.665Z,21.80
2019-05-13T15:47:22.260Z,19.80
2019-05-13T15:49:40.477Z,17.30
2019-05-13T15:52:11.922Z,14.90
2019-05-13T15:54:42.140Z,14.00
2019-05-13T15:57:12.585Z,13.80
2019-05-13T15:59:42.939Z,13.90
2019-05-13T16:02:12.881Z,13.90
2019-05-13T16:04:52.719Z,13.70
2019-05-13T16:07:14.849Z,12.90
2019-05-13T16:09:44.879Z,12.40
2019-05-13T16:12:14.812Z,12.10
2019-05-13T16:14:45.196Z,12.00
2019-05-13T16:17:15.784Z,12.00
2019-05-13T16:19:45.705Z,12.00
2019-05-13T16:22:15.767Z,11.80
2019-05-13T16:24:46.135Z,11.90
2019-05-13T16:27:16.082Z,11.70
2019-05-13T16:29:47.137Z,11.70
2019-05-13T16:32:17.048Z,11.60
2019-05-13T16:34:46.969Z,11.70
2019-05-13T16:37:17.270Z,11.80
2019-05-13T16:39:47.185Z,11.60
2019-05-13T16:42:17.256Z,11.60
2019-05-13T16:44:47.829Z,11.70
2019-05-13T16:47:17.736Z,11.80
2019-05-13T16:49:47.655Z,11.90
2019-05-13T16:52:18.393Z,11.80
2019-05-13T16:54:48.340Z,12.00
2019-05-13T16:57:18.230Z,12.20
2019-05-13T16:59:48.994Z,12.70
2019-05-13T17:02:18.926Z,13.10
2019-05-13T17:04:48.857Z,13.10
2019-05-13T17:07:20.894Z,13.50
2019-05-13T17:09:52.133Z,14.60
2019-05-13T17:12:22.533Z,15.90
2019-05-13T17:14:52.894Z,14.50
2019-05-13T17:17:22.802Z,13.60
2019-05-13T17:19:53.958Z,13.10
2019-05-13T17:22:24.521Z,12.50
2019-05-13T17:24:54.765Z,12.10
2019-05-13T17:27:24.753Z,12.20
2019-05-13T17:29:55.217Z,12.20
2019-05-13T17:32:25.138Z,12.60
2019-05-13T17:34:55.114Z,12.90
2019-05-13T17:37:25.378Z,13.00
2019-05-13T17:39:55.259Z,13.50
2019-05-13T17:42:25.257Z,14.50
2019-05-13T17:44:56.045Z,13.90
2019-05-13T17:47:25.948Z,13.80
2019-05-13T17:49:55.911Z,13.00
2019-05-13T17:52:26.303Z,12.70
2019-05-13T17:54:56.253Z,12.70
2019-05-13T17:57:26.231Z,13.10
2019-05-13T17:59:56.969Z,14.30
2019-05-13T18:02:26.987Z,14.20
2019-05-13T18:04:56.970Z,14.20
2019-05-13T18:07:27.333Z,13.60
2019-05-13T18:09:57.269Z,13.30
2019-05-13T18:12:27.224Z,13.10
2019-05-13T18:14:57.886Z,13.50
2019-05-13T18:17:27.850Z,13.70
2019-05-13T18:19:57.833Z,13.70
2019-05-13T18:22:28.162Z,14.00
2019-05-13T18:24:58.122Z,13.60
2019-05-13T18:27:28.075Z,12.80
2019-05-13T18:29:58.809Z,12.50
2019-05-13T18:32:28.756Z,12.20
2019-05-13T18:34:58.731Z,11.40
2019-05-13T18:37:31.375Z,10.90
2019-05-13T18:40:02.493Z,10.60
2019-05-13T18:42:32.385Z,10.00
2019-05-13T18:45:02.586Z,9.70
2019-05-13T18:47:32.544Z,9.80
2019-05-13T18:50:02.962Z,9.20
2019-05-13T18:52:32.967Z,9.00
2019-05-13T18:55:03.002Z,8.90
2019-05-13T18:57:33.228Z,8.40
2019-05-13T19:00:03.486Z,8.20
2019-05-13T19:02:33.534Z,8.20
2019-05-13T19:05:03.989Z,7.90
2019-05-13T19:07:33.921Z,7.60
2019-05-13T19:10:04.088Z,7.40
2019-05-13T19:12:34.350Z,7.20
2019-05-13T19:15:04.500Z,7.10
2019-05-13T19:17:36.275Z,6.90
2019-05-13T19:20:06.292Z,6.80
2019-05-13T19:22:36.334Z,6.60
2019-05-13T19:25:06.756Z,6.30
2019-05-13T19:27:37.215Z,6.20
2019-05-13T19:30:07.919Z,6.20
2019-05-13T19:32:38.387Z,6.10
2019-05-13T19:35:08.544Z,5.80
2019-05-13T19:37:38.995Z,5.60
2019-05-13T19:40:09.360Z,5.50
2019-05-13T19:42:41.682Z,5.40
2019-05-13T19:45:11.544Z,5.30
2019-05-13T19:47:41.949Z,5.20
2019-05-13T19:50:12.303Z,5.00
2019-05-13T19:52:42.219Z,4.90
2019-05-13T19:55:12.592Z,4.90
2019-05-13T19:57:42.723Z,4.80
2019-05-13T20:00:14.239Z,4.70
2019-05-13T20:02:44.649Z,4.70
2019-05-13T20:05:14.793Z,4.70
2019-05-13T20:07:44.690Z,4.30
2019-05-13T20:10:15.294Z,4.10
2019-05-13T20:12:45.227Z,4.00
2019-05-13T20:15:16.845Z,4.00
2019-05-13T20:17:46.906Z,3.90
2019-05-13T20:20:17.429Z,3.70
2019-05-13T20:22:47.347Z,3.70
2019-05-13T20:25:17.475Z,3.60
2019-05-13T20:27:47.798Z,3.50
2019-05-13T20:30:18.480Z,3.40
2019-05-13T20:32:48.850Z,3.30
2019-05-13T20:35:18.758Z,3.20
2019-05-13T20:37:48.693Z,3.10
2019-05-13T20:40:19.313Z,3.00
2019-05-13T20:42:51.415Z,3.10
2019-05-13T20:45:22.428Z,2.90
2019-05-13T20:47:52.777Z,2.80
2019-05-13T20:50:22.955Z,2.70
2019-05-13T20:52:52.892Z,2.60
2019-05-13T20:55:22.875Z,2.60
2019-05-13T20:57:53.305Z,2.50
2019-05-13T21:00:23.669Z,2.40
2019-05-13T21:02:53.693Z,2.40
2019-05-13T21:05:23.882Z,2.40
2019-05-13T21:07:53.875Z,2.30
2019-05-13T21:10:23.780Z,2.20
2019-05-13T21:12:54.022Z,2.10
2019-05-13T21:15:24.230Z,2.00
2019-05-13T21:17:54.196Z,2.00
2019-05-13T21:20:25.951Z,1.90
2019-05-13T21:22:55.915Z,1.90
2019-05-13T21:25:26.178Z,1.90
2019-05-13T21:27:55.997Z,1.70
2019-05-13T21:30:26.274Z,1.60
2019-05-13T21:32:56.557Z,1.70
2019-05-13T21:35:26.414Z,1.70
2019-05-13T21:37:56.349Z,1.70
2019-05-13T21:40:26.688Z,1.70
2019-05-13T21:42:56.856Z,1.70
2019-05-13T21:45:27.304Z,1.70
2019-05-13T21:47:57.186Z,1.70
2019-05-13T21:50:34.396Z,1.60
2019-05-13T21:52:58.924Z,1.40
2019-05-13T21:55:28.844Z,1.30
2019-05-13T21:57:58.705Z,1.30
2019-05-13T22:00:33.815Z,1.20
2019-05-13T22:03:03.677Z,1.10
2019-05-13T22:05:33.582Z,1.10
2019-05-13T22:08:03.969Z,1.00
2019-05-13T22:10:33.863Z,1.00
2019-05-13T22:13:03.693Z,1.00
2019-05-13T22:15:33.890Z,1.00
2019-05-13T22:18:03.878Z,1.00
2019-05-13T22:20:49.486Z,0.90
2019-05-13T22:23:05.788Z,0.90
2019-05-13T22:25:35.709Z,0.90
2019-05-13T22:28:05.582Z,0.90
2019-05-13T22:30:36.363Z,0.90
2019-05-13T22:33:06.234Z,0.90
2019-05-13T22:35:36.126Z,0.80
2019-05-13T22:38:06.124Z,0.70
2019-05-13T22:40:36.100Z,0.70
2019-05-13T22:43:06.052Z,0.60
2019-05-13T22:45:36.881Z,0.60
2019-05-13T22:48:06.721Z,0.60
2019-05-13T22:50:36.573Z,0.50
2019-05-13T22:53:06.833Z,0.50
2019-05-13T22:55:36.797Z,0.50
2019-05-13T22:58:06.644Z,0.40
2019-05-13T23:00:37.162Z,0.30
2019-05-13T23:03:07.050Z,0.20
2019-05-13T23:05:37.093Z,0.10
2019-05-13T23:08:07.126Z,0.10
2019-05-13T23:10:37.381Z,0.10
2019-05-13T23:13:07.269Z,0.10
2019-05-13T23:15:37.595Z,0.10
2019-05-13T23:18:07.422Z,0.00
2019-05-13T23:20:37.409Z,0.10
2019-05-13T23:23:07.375Z,0.10
2019-05-13T23:25:39.924Z,0.00
2019-05-13T23:28:11.106Z,0.00
2019-05-13T23:30:41.721Z,-0.10
2019-05-13T23:33:12.028Z,-0.10
2019-05-13T23:35:42.050Z,-0.10
2019-05-13T23:38:12.113Z,-0.20
2019-05-13T23:40:42.283Z,-0.20
2019-05-13T23:43:12.175Z,-0.30
2019-05-13T23:45:42.482Z,-0.30
2019-05-13T23:48:12.745Z,-0.30
2019-05-13T23:50:44.512Z,-0.30
2019-05-13T23:53:14.648Z,-0.30
2019-05-13T23:55:44.548Z,-0.30
2019-05-13T23:58:14.382Z,-0.30
